Time;durP1;ratioP1;P1;durP2;ratioP2;P2;SDS_P1;SDS_P2;PMS_P1;PMS_P2;Temp;Humidity;BMP_temperature;BMP_pressure;BME280_temperature;BME280_humidity;BME280_pressure;Samples;Min_cycle;Max_cycle;Signal;HPM_P1;HPM_P2
2023/02/18 00:00:45;;;;;;;5.45;2.60;;;12.30;99.90;;;;;;4993757;28;20050;-59
2023/02/18 00:03:12;;;;;;;6.03;2.40;;;12.40;99.90;;;;;;4993718;28;20066;-60
2023/02/18 00:05:38;;;;;;;5.07;2.42;;;12.40;99.90;;;;;;4993761;28;20053;-60
2023/02/18 00:08:05;;;;;;;6.07;2.25;;;12.40;99.90;;;;;;4993895;28;20108;-60
2023/02/18 00:10:32;;;;;;;4.35;2.17;;;12.40;99.90;;;;;;4993576;28;20058;-61
2023/02/18 00:13:00;;;;;;;3.20;1.75;;;12.40;99.90;;;;;;4993608;28;20046;-60
2023/02/18 00:15:27;;;;;;;4.28;1.90;;;12.40;99.90;;;;;;4993927;28;20097;-61
2023/02/18 00:17:53;;;;;;;3.65;1.70;;;12.40;99.90;;;;;;4993447;28;20541;-60
2023/02/18 00:20:20;;;;;;;2.90;1.60;;;12.40;99.90;;;;;;4993619;28;20461;-58
2023/02/18 00:22:47;;;;;;;3.97;1.58;;;12.40;99.90;;;;;;4993531;28;20042;-62
2023/02/18 00:25:14;;;;;;;2.78;1.70;;;12.40;99.90;;;;;;4993606;28;20089;-59
2023/02/18 00:27:40;;;;;;;3.35;1.40;;;12.40;99.90;;;;;;4993819;28;20042;-61
2023/02/18 00:30:07;;;;;;;3.60;1.92;;;12.40;99.90;;;;;;4992532;28;20133;-62
2023/02/18 00:32:34;;;;;;;2.67;1.77;;;12.40;99.90;;;;;;4991346;28;20061;-58
2023/02/18 00:35:01;;;;;;;3.95;1.80;;;12.40;99.90;;;;;;4988016;28;20046;-62
2023/02/18 00:37:28;;;;;;;3.28;2.00;;;12.40;99.90;;;;;;4993716;28;20034;-58
2023/02/18 00:39:54;;;;;;;3.53;1.80;;;12.30;99.90;;;;;;4992245;28;20101;-60
2023/02/18 00:42:21;;;;;;;3.63;1.92;;;12.30;99.90;;;;;;4997230;28;20038;-61
2023/02/18 00:44:48;;;;;;;5.20;1.90;;;12.30;99.90;;;;;;4995923;28;20046;-62
2023/02/18 00:47:14;;;;;;;2.95;2.00;;;12.30;99.90;;;;;;4994776;28;20046;-60
2023/02/18 00:49:42;;;;;;;4.22;2.08;;;12.30;99.90;;;;;;4994838;28;20050;-61
2023/02/18 00:52:09;;;;;;;5.18;1.85;;;12.30;99.90;;;;;;4995924;28;20042;-62
2023/02/18 00:54:36;;;;;;;4.68;2.08;;;12.20;99.90;;;;;;4996661;28;20472;-62
2023/02/18 00:57:02;;;;;;;4.60;2.42;;;12.20;99.90;;;;;;4997180;28;20496;-62
2023/02/18 00:59:29;;;;;;;3.15;1.88;;;12.10;99.90;;;;;;4996130;28;20093;-63
2023/02/18 01:01:59;;;;;;;5.03;2.47;;;12.10;99.90;;;;;;4996160;28;20042;-59
2023/02/18 01:04:26;;;;;;;4.68;2.47;;;12.10;99.90;;;;;;4995971;28;20054;-57
2023/02/18 01:06:53;;;;;;;4.10;2.00;;;12.10;99.90;;;;;;4992723;28;20057;-61
2023/02/18 01:09:24;;;;;;;4.47;2.20;;;12.10;99.90;;;;;;4977858;28;20092;-62
2023/02/18 01:11:51;;;;;;;4.32;2.22;;;12.00;99.90;;;;;;4977693;28;20437;-58
2023/02/18 01:14:17;;;;;;;5.25;2.40;;;12.00;99.90;;;;;;4977715;28;20409;-59
2023/02/18 01:16:44;;;;;;;3.33;1.85;;;12.00;99.90;;;;;;4992511;28;20045;-61
2023/02/18 01:19:11;;;;;;;4.25;1.85;;;12.00;99.90;;;;;;4977403;28;20630;-63
2023/02/18 01:21:38;;;;;;;4.65;2.03;;;12.00;99.90;;;;;;4977267;28;20049;-61
2023/02/18 01:24:04;;;;;;;3.17;1.40;;;12.00;99.90;;;;;;4977396;28;20081;-63
2023/02/18 01:26:31;;;;;;;2.78;1.35;;;12.00;99.90;;;;;;4992737;28;20113;-63
2023/02/18 01:28:58;;;;;;;2.28;1.33;;;12.00;99.90;;;;;;4992422;28;20110;-62
2023/02/18 01:31:24;;;;;;;2.35;1.23;;;12.10;99.90;;;;;;4977087;28;20096;-63
2023/02/18 01:33:51;;;;;;;3.85;1.38;;;12.00;99.90;;;;;;4991975;28;20053;-62
2023/02/18 01:36:19;;;;;;;2.50;1.17;;;12.00;99.90;;;;;;4992092;28;20068;-62
2023/02/18 01:38:45;;;;;;;4.72;1.13;;;12.00;99.90;;;;;;4977509;28;20039;-63
2023/02/18 01:41:12;;;;;;;1.80;0.90;;;12.00;99.90;;;;;;4977182;28;20482;-61
2023/02/18 01:43:39;;;;;;;1.80;0.80;;;12.00;99.90;;;;;;4991985;28;20486;-63
2023/02/18 01:46:08;;;;;;;1.55;0.80;;;12.00;99.90;;;;;;4977368;28;20042;-55
2023/02/18 01:48:35;;;;;;;1.88;0.90;;;11.90;99.90;;;;;;4977041;28;20049;-56
2023/02/18 01:51:06;;;;;;;2.03;0.90;;;11.90;99.90;;;;;;4976874;28;20047;-62
2023/02/18 01:53:32;;;;;;;2.30;0.82;;;11.80;99.90;;;;;;4976617;28;20047;-61
2023/02/18 01:55:59;;;;;;;1.90;0.90;;;11.80;99.90;;;;;;4976962;28;20081;-63
2023/02/18 01:58:26;;;;;;;1.65;0.90;;;11.80;99.90;;;;;;4991789;28;20043;-61
2023/02/18 02:00:52;;;;;;;2.28;0.85;;;11.70;99.90;;;;;;4991304;28;20057;-61
2023/02/18 02:03:19;;;;;;;1.60;0.80;;;11.70;99.90;;;;;;4976641;28;20050;-62
2023/02/18 02:05:46;;;;;;;1.77;0.73;;;11.70;99.90;;;;;;4991683;28;20043;-63
2023/02/18 02:08:14;;;;;;;3.45;1.00;;;11.70;99.90;;;;;;4991627;28;20040;-60
2023/02/18 02:10:41;;;;;;;2.60;0.80;;;11.80;99.90;;;;;;4976578;28;20046;-63
2023/02/18 02:13:08;;;;;;;2.03;0.70;;;11.70;99.90;;;;;;4991464;28;20050;-61
2023/02/18 02:15:34;;;;;;;1.38;0.70;;;11.80;99.90;;;;;;4991758;28;20051;-61
2023/02/18 02:18:01;;;;;;;1.42;0.60;;;11.80;99.90;;;;;;4976479;28;20039;-61
2023/02/18 02:20:28;;;;;;;1.42;0.70;;;11.80;99.90;;;;;;4991031;28;20512;-63
2023/02/18 02:22:55;;;;;;;1.83;0.68;;;11.70;99.90;;;;;;4991457;28;20046;-61
2023/02/18 02:25:21;;;;;;;2.03;0.70;;;11.80;99.90;;;;;;4991143;28;20046;-61
2023/02/18 02:27:48;;;;;;;2.95;0.90;;;11.80;99.90;;;;;;4975866;28;20540;-62
2023/02/18 02:30:15;;;;;;;1.45;0.60;;;11.80;99.90;;;;;;4976399;28;20050;-63
2023/02/18 02:32:42;;;;;;;1.73;0.63;;;11.70;99.90;;;;;;4976150;28;20130;-61
2023/02/18 02:35:09;;;;;;;2.38;0.75;;;11.70;99.90;;;;;;4991414;28;20137;-63
2023/02/18 02:37:35;;;;;;;1.40;0.60;;;11.70;99.90;;;;;;4991466;28;20047;-58
2023/02/18 02:40:02;;;;;;;2.60;0.63;;;11.70;99.90;;;;;;4991175;28;20043;-61
2023/02/18 02:42:32;;;;;;;2.20;0.60;;;11.70;99.90;;;;;;4995112;28;20031;-61
2023/02/18 02:44:58;;;;;;;1.33;0.47;;;11.70;99.90;;;;;;4994274;28;20137;-62
2023/02/18 02:47:25;;;;;;;2.90;0.60;;;11.60;99.90;;;;;;4993808;28;20042;-62
2023/02/18 02:49:52;;;;;;;2.78;0.60;;;11.60;99.90;;;;;;4994252;28;20046;-62
2023/02/18 02:52:19;;;;;;;2.72;0.65;;;11.60;99.90;;;;;;4993894;28;20421;-62
2023/02/18 02:54:45;;;;;;;3.60;0.70;;;11.50;99.90;;;;;;4995203;28;20444;-60
2023/02/18 02:57:12;;;;;;;1.50;0.43;;;11.50;99.90;;;;;;4993589;28;20044;-62
2023/02/18 02:59:51;;;;;;;3.30;0.77;;;11.50;99.90;;;;;;4993882;28;20126;-62
2023/02/18 03:02:18;;;;;;;1.90;0.68;;;11.50;99.90;;;;;;4994657;28;20055;-62
2023/02/18 03:04:44;;;;;;;3.30;0.95;;;11.50;99.90;;;;;;4993078;28;20188;-62
2023/02/18 03:07:15;;;;;;;5.22;0.88;;;11.50;99.90;;;;;;4993619;28;20046;-62
2023/02/18 03:09:41;;;;;;;4.20;0.85;;;11.40;99.90;;;;;;4977571;28;20042;-61
2023/02/18 03:12:08;;;;;;;6.38;1.52;;;11.40;99.90;;;;;;4994882;28;20371;-62
2023/02/18 03:14:35;;;;;;;4.07;0.90;;;11.30;99.90;;;;;;4993667;28;20046;-62
2023/02/18 03:17:02;;;;;;;2.92;0.73;;;11.30;99.90;;;;;;4994702;28;20478;-62
2023/02/18 03:19:29;;;;;;;3.60;0.75;;;11.30;99.90;;;;;;4993534;28;20047;-61
2023/02/18 03:21:58;;;;;;;5.90;1.05;;;11.30;99.90;;;;;;4993815;28;20042;-63
2023/02/18 03:24:24;;;;;;;6.10;1.00;;;11.30;99.90;;;;;;4993646;28;20050;-60
2023/02/18 03:26:51;;;;;;;4.57;0.80;;;11.30;99.90;;;;;;4993859;28;20042;-62
2023/02/18 03:29:19;;;;;;;3.78;1.02;;;11.30;99.90;;;;;;4993205;28;20140;-60
2023/02/18 03:31:47;;;;;;;6.93;1.30;;;11.20;99.90;;;;;;4993539;28;20100;-60
2023/02/18 03:34:14;;;;;;;6.15;1.10;;;11.30;99.90;;;;;;4992929;28;20042;-64
2023/02/18 03:36:41;;;;;;;7.63;0.95;;;11.20;99.90;;;;;;4977205;28;20039;-62
2023/02/18 03:39:08;;;;;;;4.25;0.80;;;11.20;99.90;;;;;;4993155;28;20049;-63
2023/02/18 03:41:35;;;;;;;3.95;1.00;;;11.20;99.90;;;;;;4994317;28;20046;-64
2023/02/18 03:44:02;;;;;;;4.38;0.90;;;11.20;99.90;;;;;;4992902;28;20124;-61
2023/02/18 03:46:28;;;;;;;6.15;1.05;;;11.30;99.90;;;;;;4994347;28;20042;-64
2023/02/18 03:48:57;;;;;;;4.00;0.90;;;11.30;99.90;;;;;;4993347;28;20046;-62
2023/02/18 03:51:23;;;;;;;5.75;1.02;;;11.20;99.90;;;;;;4994123;28;20420;-63
2023/02/18 03:53:50;;;;;;;6.57;1.13;;;11.20;99.90;;;;;;4994088;28;20042;-61
2023/02/18 03:56:17;;;;;;;4.90;0.90;;;11.30;99.90;;;;;;4992933;28;20042;-58
2023/02/18 03:58:44;;;;;;;4.82;1.00;;;11.20;99.90;;;;;;4994131;28;20449;-60
2023/02/18 04:01:10;;;;;;;5.75;1.10;;;11.20;99.90;;;;;;4994250;28;20486;-61
2023/02/18 04:03:37;;;;;;;4.68;0.80;;;11.20;99.90;;;;;;4993989;28;20038;-63
2023/02/18 04:06:04;;;;;;;4.43;1.20;;;11.20;99.90;;;;;;4992874;28;20501;-63
2023/02/18 04:08:31;;;;;;;5.88;1.10;;;11.20;99.90;;;;;;4993862;28;20097;-61
2023/02/18 04:10:57;;;;;;;7.03;1.30;;;11.10;99.90;;;;;;4994058;28;20465;-61
2023/02/18 04:13:24;;;;;;;5.47;1.30;;;11.10;99.90;;;;;;4993819;28;20078;-61
2023/02/18 04:15:51;;;;;;;4.00;0.90;;;11.20;99.90;;;;;;4995992;28;20054;-63
2023/02/18 04:18:17;;;;;;;5.20;0.85;;;11.10;99.90;;;;;;4998201;28;20042;-63
2023/02/18 04:20:45;;;;;;;4.18;0.93;;;11.20;99.90;;;;;;4998006;28;20046;-60
2023/02/18 04:23:12;;;;;;;3.03;0.75;;;11.10;99.90;;;;;;4998030;28;20489;-58
2023/02/18 04:25:38;;;;;;;4.20;1.00;;;11.10;99.90;;;;;;4998217;28;20424;-62
2023/02/18 04:28:05;;;;;;;4.38;0.90;;;11.10;99.90;;;;;;4997886;28;20046;-60
2023/02/18 04:30:32;;;;;;;5.43;1.15;;;11.10;99.90;;;;;;4998115;28;20536;-62
2023/02/18 04:32:59;;;;;;;5.72;1.08;;;11.10;99.90;;;;;;4997950;28;20046;-60
2023/02/18 04:35:25;;;;;;;5.82;0.93;;;11.10;99.90;;;;;;4997741;28;20043;-63
2023/02/18 04:37:52;;;;;;;3.42;0.70;;;11.10;99.90;;;;;;4997967;28;20042;-61
2023/02/18 04:40:19;;;;;;;5.05;1.10;;;11.10;99.90;;;;;;4996519;28;20540;-63
2023/02/18 04:42:45;;;;;;;4.68;0.77;;;11.10;99.90;;;;;;4997845;28;20066;-60
2023/02/18 04:45:12;;;;;;;5.40;0.95;;;11.10;99.90;;;;;;4997424;28;20573;-58
2023/02/18 04:47:39;;;;;;;4.50;0.90;;;11.10;99.90;;;;;;4997501;28;20045;-59
2023/02/18 04:50:06;;;;;;;3.55;0.90;;;11.10;99.90;;;;;;4997531;28;20373;-58
2023/02/18 04:52:32;;;;;;;4.85;1.00;;;11.10;99.90;;;;;;4997515;28;20111;-61
2023/02/18 04:54:59;;;;;;;4.00;0.90;;;11.00;99.90;;;;;;4997384;28;20046;-59
2023/02/18 04:57:26;;;;;;;4.35;0.90;;;11.00;99.90;;;;;;4997583;28;20047;-61
2023/02/18 04:59:52;;;;;;;4.13;0.95;;;11.00;99.90;;;;;;4997324;28;20047;-57
2023/02/18 05:02:19;;;;;;;5.07;0.90;;;11.00;99.90;;;;;;4997583;28;20359;-61
2023/02/18 05:04:46;;;;;;;4.85;0.90;;;11.00;99.90;;;;;;4997539;28;20054;-61
2023/02/18 05:07:13;;;;;;;5.93;1.15;;;11.00;99.90;;;;;;4997096;28;20554;-56
2023/02/18 05:09:40;;;;;;;4.07;0.90;;;11.00;99.90;;;;;;4997212;28;20050;-62
2023/02/18 05:12:06;;;;;;;7.03;1.10;;;11.00;99.90;;;;;;4996971;28;20155;-61
2023/02/18 05:14:33;;;;;;;6.43;0.90;;;11.00;99.90;;;;;;4997059;28;20535;-62
2023/02/18 05:17:00;;;;;;;5.22;0.90;;;11.00;99.90;;;;;;4997068;28;20051;-56
2023/02/18 05:19:26;;;;;;;3.78;0.90;;;11.00;99.90;;;;;;4997184;28;20369;-61
2023/02/18 05:21:53;;;;;;;3.70;0.90;;;11.00;99.90;;;;;;4997025;28;20050;-61
2023/02/18 05:24:20;;;;;;;4.97;0.90;;;10.90;99.90;;;;;;4996733;28;20047;-59
2023/02/18 05:26:46;;;;;;;3.72;0.70;;;11.00;99.90;;;;;;4996654;28;20401;-62
2023/02/18 05:29:13;;;;;;;4.38;0.95;;;11.00;99.90;;;;;;4996860;28;20066;-61
2023/02/18 05:31:41;;;;;;;3.70;0.70;;;11.00;99.90;;;;;;4996877;28;20038;-60
2023/02/18 05:34:07;;;;;;;5.35;0.95;;;11.00;99.90;;;;;;4996810;28;20046;-63
2023/02/18 05:36:34;;;;;;;5.32;0.80;;;11.00;99.90;;;;;;4996664;28;20254;-60
2023/02/18 05:39:01;;;;;;;4.13;0.80;;;11.10;99.90;;;;;;4996355;28;20038;-63
2023/02/18 05:41:28;;;;;;;2.60;0.57;;;11.00;99.90;;;;;;4996678;28;20093;-61
2023/02/18 05:46:40;;;;;;;6.30;0.80;;;11.10;99.90;;;;;;4996627;28;20493;-63
2023/02/18 05:49:06;;;;;;;4.13;0.80;;;11.10;99.90;;;;;;4996670;28;20413;-62
2023/02/18 05:51:33;;;;;;;3.17;0.60;;;11.10;99.90;;;;;;4996802;28;20050;-56
2023/02/18 05:54:00;;;;;;;4.90;0.70;;;11.10;99.90;;;;;;4996287;28;20046;-62
2023/02/18 05:56:26;;;;;;;3.85;0.93;;;11.10;99.90;;;;;;4996485;28;20034;-62
2023/02/18 05:58:53;;;;;;;4.90;0.82;;;11.10;99.90;;;;;;4996352;28;20038;-63
2023/02/18 06:01:20;;;;;;;3.15;0.60;;;11.10;99.90;;;;;;4996067;28;20054;-61
2023/02/18 06:03:47;;;;;;;2.55;0.68;;;11.10;99.90;;;;;;4996320;28;20042;-63
2023/02/18 06:06:13;;;;;;;4.35;0.80;;;11.10;99.90;;;;;;4996405;28;20038;-60
2023/02/18 06:08:40;;;;;;;4.32;0.60;;;11.10;99.90;;;;;;4996285;28;20054;-63
2023/02/18 06:11:07;;;;;;;4.03;0.70;;;11.10;99.90;;;;;;4995992;28;20074;-59
2023/02/18 06:13:34;;;;;;;4.43;0.68;;;11.10;99.90;;;;;;4996028;28;20409;-60
2023/02/18 06:16:00;;;;;;;3.75;0.73;;;11.10;99.90;;;;;;4995666;28;20100;-56
2023/02/18 06:18:27;;;;;;;4.28;0.73;;;11.10;99.90;;;;;;4995545;28;20039;-59
2023/02/18 06:20:54;;;;;;;2.75;0.50;;;11.20;99.90;;;;;;4995782;28;20042;-60
2023/02/18 06:23:21;;;;;;;3.22;0.65;;;11.10;99.90;;;;;;4995681;28;20057;-59
2023/02/18 06:25:47;;;;;;;4.47;0.60;;;11.10;99.90;;;;;;4994394;28;20532;-63
2023/02/18 06:28:14;;;;;;;2.25;0.70;;;11.20;99.90;;;;;;4995386;28;20473;-61
2023/02/18 06:30:41;;;;;;;2.75;0.90;;;11.10;99.90;;;;;;4995671;28;20105;-62
2023/02/18 06:33:07;;;;;;;2.67;0.68;;;11.10;99.90;;;;;;4992873;28;20432;-59
2023/02/18 06:35:34;;;;;;;3.30;0.57;;;11.10;99.90;;;;;;4993488;28;20042;-61
2023/02/18 06:38:01;;;;;;;3.25;0.65;;;11.10;99.90;;;;;;4994409;28;20365;-61
2023/02/18 06:40:28;;;;;;;7.60;0.70;;;11.10;99.90;;;;;;4994205;28;20049;-61
2023/02/18 06:42:55;;;;;;;4.43;0.80;;;11.10;99.90;;;;;;4994139;28;20034;-62
2023/02/18 06:45:21;;;;;;;4.15;0.80;;;11.20;99.90;;;;;;4993859;28;20441;-57
2023/02/18 06:47:48;;;;;;;5.13;0.88;;;11.10;99.90;;;;;;4994063;28;20050;-60
2023/02/18 06:50:15;;;;;;;2.78;0.73;;;11.10;99.90;;;;;;4992155;28;20042;-60
2023/02/18 06:52:42;;;;;;;4.43;0.70;;;11.20;99.90;;;;;;4993931;28;20046;-61
2023/02/18 06:55:08;;;;;;;3.50;0.68;;;11.20;99.90;;;;;;4993897;28;20082;-57
2023/02/18 06:57:35;;;;;;;4.50;0.70;;;11.20;99.90;;;;;;4994830;28;20038;-59
2023/02/18 07:00:02;;;;;;;3.65;0.70;;;11.20;99.90;;;;;;4994664;28;20101;-60
2023/02/18 07:02:29;;;;;;;3.38;0.77;;;11.20;99.90;;;;;;4994975;28;20038;-60
2023/02/18 07:04:55;;;;;;;2.33;0.70;;;11.20;99.90;;;;;;4995196;28;20049;-64
2023/02/18 07:07:22;;;;;;;2.78;0.80;;;11.20;99.90;;;;;;4995141;28;20081;-61
2023/02/18 07:09:49;;;;;;;4.25;0.63;;;11.20;99.90;;;;;;4994065;28;20417;-58
2023/02/18 07:12:15;;;;;;;2.75;0.65;;;11.20;99.90;;;;;;4994870;28;20050;-58
2023/02/18 07:14:42;;;;;;;4.38;0.70;;;11.30;99.90;;;;;;4993369;28;20077;-55
2023/02/18 07:17:09;;;;;;;4.82;0.65;;;11.30;99.90;;;;;;4993752;28;20058;-60
2023/02/18 07:19:35;;;;;;;3.90;0.50;;;11.20;99.90;;;;;;4993904;28;20077;-60
2023/02/18 07:22:02;;;;;;;2.80;0.50;;;11.20;99.90;;;;;;4994269;28;20089;-63
2023/02/18 07:24:29;;;;;;;3.83;0.75;;;11.30;99.90;;;;;;4993153;28;20109;-63
2023/02/18 07:26:56;;;;;;;3.47;0.65;;;11.30;99.90;;;;;;4994612;28;20477;-62
2023/02/18 07:29:22;;;;;;;5.85;0.95;;;11.30;99.90;;;;;;4994922;28;20096;-57
2023/02/18 07:31:49;;;;;;;2.38;0.70;;;11.30;99.90;;;;;;4994626;28;20047;-61
2023/02/18 07:34:16;;;;;;;2.70;0.70;;;11.30;99.90;;;;;;4994448;28;20084;-59
2023/02/18 07:36:43;;;;;;;6.05;0.90;;;11.30;99.90;;;;;;4993665;28;20138;-59
2023/02/18 07:39:09;;;;;;;4.95;0.82;;;11.30;99.90;;;;;;4992948;28;20047;-61
2023/02/18 07:41:36;;;;;;;3.05;0.80;;;11.30;99.90;;;;;;4992924;28;20109;-62
2023/02/18 07:44:06;;;;;;;3.95;1.23;;;11.30;99.90;;;;;;4991519;28;20042;-59
2023/02/18 07:46:33;;;;;;;3.85;1.13;;;11.30;99.90;;;;;;4992916;28;20050;-63
2023/02/18 07:49:00;;;;;;;5.03;0.93;;;11.30;99.90;;;;;;4992952;28;20592;-59
2023/02/18 07:51:27;;;;;;;3.63;0.60;;;11.30;99.90;;;;;;4992649;28;20101;-63
2023/02/18 07:53:53;;;;;;;3.55;0.90;;;11.30;99.90;;;;;;4992980;28;20049;-63
2023/02/18 07:56:20;;;;;;;4.15;1.00;;;11.40;99.90;;;;;;4993900;28;20046;-59
2023/02/18 07:58:47;;;;;;;5.63;0.80;;;11.40;99.90;;;;;;4993683;28;20121;-60
2023/02/18 08:01:14;;;;;;;3.65;0.80;;;11.40;99.90;;;;;;4994369;28;20105;-63
2023/02/18 08:03:40;;;;;;;3.25;0.80;;;11.40;99.90;;;;;;4993965;28;20038;-56
2023/02/18 08:06:07;;;;;;;4.07;0.70;;;11.40;99.90;;;;;;4993977;28;20092;-60
2023/02/18 08:08:34;;;;;;;5.82;1.33;;;11.40;99.90;;;;;;4992864;28;20396;-62
2023/02/18 08:11:02;;;;;;;3.38;0.60;;;11.40;99.90;;;;;;4992782;28;20121;-62
2023/02/18 08:13:43;;;;;;;4.00;0.93;;;11.50;99.90;;;;;;4992918;28;20048;-62
2023/02/18 08:16:12;;;;;;;3.70;1.27;;;11.50;99.90;;;;;;4992653;28;20034;-60
2023/02/18 08:18:39;;;;;;;3.75;0.80;;;11.50;99.90;;;;;;4992763;28;20084;-62
2023/02/18 08:21:06;;;;;;;6.47;0.80;;;11.60;99.90;;;;;;4992828;28;20429;-57
2023/02/18 08:23:32;;;;;;;4.07;0.90;;;11.60;99.90;;;;;;4993864;28;20046;-61
2023/02/18 08:25:59;;;;;;;2.83;0.80;;;11.60;99.90;;;;;;4994098;28;20050;-61
2023/02/18 08:28:26;;;;;;;2.40;0.63;;;11.60;99.90;;;;;;4994271;28;20104;-62
2023/02/18 08:30:53;;;;;;;2.38;0.70;;;11.70;99.90;;;;;;4994024;28;20101;-60
2023/02/18 08:33:19;;;;;;;3.53;0.70;;;11.70;99.90;;;;;;4993979;28;20442;-62
2023/02/18 08:35:46;;;;;;;3.88;0.45;;;11.70;99.90;;;;;;4993810;28;20097;-59
2023/02/18 08:38:13;;;;;;;4.07;0.90;;;11.80;99.90;;;;;;4994006;28;20100;-61
2023/02/18 08:40:41;;;;;;;5.38;1.00;;;11.70;99.90;;;;;;4993720;28;20046;-62
2023/02/18 08:43:08;;;;;;;4.55;0.88;;;11.80;99.90;;;;;;4992673;28;20043;-60
2023/02/18 08:45:36;;;;;;;4.00;0.93;;;11.80;99.90;;;;;;4993936;28;20417;-60
2023/02/18 08:48:03;;;;;;;3.88;0.68;;;11.80;99.90;;;;;;4992481;28;20038;-58
2023/02/18 08:50:44;;;;;;;4.93;1.05;;;11.80;99.90;;;;;;4993889;28;20485;-62
2023/02/18 08:53:11;;;;;;;3.75;0.80;;;11.80;99.90;;;;;;4993737;28;20042;-61
2023/02/18 08:55:37;;;;;;;2.53;0.70;;;11.80;99.90;;;;;;4993777;28;20042;-58
2023/02/18 08:58:05;;;;;;;4.47;0.80;;;11.90;99.90;;;;;;4993936;28;20074;-59
2023/02/18 09:00:32;;;;;;;7.25;0.80;;;11.90;99.90;;;;;;4993333;28;20141;-61
2023/02/18 09:02:59;;;;;;;5.25;0.90;;;11.90;99.90;;;;;;4995798;28;20057;-61
2023/02/18 09:05:25;;;;;;;1.92;0.60;;;11.90;99.90;;;;;;4996094;28;20049;-61
2023/02/18 09:07:52;;;;;;;2.65;0.80;;;12.00;99.90;;;;;;4996299;28;20087;-58
2023/02/18 09:10:19;;;;;;;5.28;0.88;;;12.00;99.90;;;;;;4996385;28;20070;-61
2023/02/18 09:12:46;;;;;;;2.95;0.68;;;12.00;99.90;;;;;;4995969;28;20485;-63
2023/02/18 09:15:12;;;;;;;5.03;0.77;;;12.10;99.90;;;;;;4996271;28;20093;-58
2023/02/18 09:17:39;;;;;;;4.18;1.10;;;12.10;99.90;;;;;;4996124;28;20552;-61
2023/02/18 09:20:06;;;;;;;3.55;0.82;;;12.10;99.90;;;;;;4996007;28;20054;-59
2023/02/18 09:22:32;;;;;;;4.07;0.80;;;12.20;99.90;;;;;;4995745;28;20046;-59
2023/02/18 09:24:59;;;;;;;3.70;0.63;;;12.30;99.90;;;;;;4996062;28;20074;-61
2023/02/18 09:27:26;;;;;;;2.78;0.60;;;12.30;99.90;;;;;;4994791;28;20113;-61
2023/02/18 09:29:53;;;;;;;5.82;0.80;;;12.40;99.90;;;;;;4994477;28;20105;-62
2023/02/18 09:32:19;;;;;;;5.13;0.77;;;12.40;99.90;;;;;;4995607;28;20046;-62
2023/02/18 09:34:59;;;;;;;2.17;0.73;;;12.50;99.90;;;;;;4995691;28;20537;-62
2023/02/18 09:37:26;;;;;;;3.28;0.73;;;12.50;99.90;;;;;;4995759;28;20113;-60
2023/02/18 09:39:53;;;;;;;3.13;0.68;;;12.50;99.90;;;;;;4995591;28;20044;-61
2023/02/18 09:42:19;;;;;;;4.15;0.90;;;12.50;99.90;;;;;;4995516;28;20046;-61
2023/02/18 09:44:46;;;;;;;3.22;0.70;;;12.50;99.90;;;;;;4995258;28;20069;-62
2023/02/18 09:47:13;;;;;;;3.72;1.02;;;12.40;99.90;;;;;;4995596;28;20045;-63
2023/02/18 09:49:40;;;;;;;2.63;0.60;;;12.40;99.90;;;;;;4995716;28;20481;-61
2023/02/18 09:52:06;;;;;;;4.40;0.73;;;12.40;99.90;;;;;;4995428;28;20042;-62
2023/02/18 09:54:33;;;;;;;3.58;0.80;;;12.40;99.90;;;;;;4995590;28;20047;-62
2023/02/18 09:57:00;;;;;;;4.88;0.90;;;12.40;99.90;;;;;;4995594;28;20038;-60
2023/02/18 09:59:26;;;;;;;4.68;1.13;;;12.40;99.90;;;;;;4995353;28;20112;-60
2023/02/18 10:01:53;;;;;;;4.75;0.98;;;12.50;99.90;;;;;;4953670;28;1230513;-61
2023/02/18 10:04:22;;;;;;;2.90;0.60;;;12.50;99.90;;;;;;4995056;28;20034;-62
2023/02/18 10:06:49;;;;;;;4.57;0.63;;;12.50;99.90;;;;;;4996102;28;20132;-58
2023/02/18 10:09:16;;;;;;;2.53;0.70;;;12.60;99.90;;;;;;4996205;28;20493;-58
2023/02/18 10:11:42;;;;;;;3.78;0.63;;;12.60;99.90;;;;;;4995996;28;20144;-57
2023/02/18 10:14:09;;;;;;;4.32;0.90;;;12.70;99.90;;;;;;4995134;28;20108;-60
2023/02/18 10:16:36;;;;;;;3.70;0.65;;;12.80;99.90;;;;;;4995851;28;20100;-61
2023/02/18 10:19:03;;;;;;;2.78;0.70;;;12.90;99.90;;;;;;4996082;28;20479;-58
2023/02/18 10:21:30;;;;;;;3.55;0.60;;;12.90;99.90;;;;;;4995842;28;20050;-61
2023/02/18 10:23:57;;;;;;;1.80;0.60;;;13.00;99.90;;;;;;4995369;28;20490;-61
2023/02/18 10:26:24;;;;;;;6.30;0.70;;;13.00;99.90;;;;;;4995929;28;20050;-63
2023/02/18 10:28:51;;;;;;;2.75;0.60;;;13.10;99.90;;;;;;4995308;28;20046;-61
2023/02/18 10:31:18;;;;;;;5.35;1.08;;;13.10;99.90;;;;;;4995308;28;20485;-62
2023/02/18 10:33:45;;;;;;;4.38;0.80;;;13.10;99.90;;;;;;4995429;28;20129;-61
2023/02/18 10:36:12;;;;;;;6.38;0.93;;;13.20;99.90;;;;;;4995687;28;20378;-62
2023/02/18 10:38:39;;;;;;;2.97;0.70;;;13.20;99.90;;;;;;4995666;28;20039;-62
2023/02/18 10:41:06;;;;;;;4.43;1.10;;;13.20;99.90;;;;;;4995668;28;20050;-62
2023/02/18 10:43:33;;;;;;;4.53;1.33;;;13.20;99.90;;;;;;4995158;28;20096;-62
2023/02/18 10:46:00;;;;;;;5.93;1.05;;;13.30;99.90;;;;;;4995547;28;20101;-58
2023/02/18 10:48:26;;;;;;;2.78;0.70;;;13.30;99.90;;;;;;4995493;28;20541;-60
2023/02/18 10:50:53;;;;;;;4.10;0.80;;;13.30;99.90;;;;;;4995505;28;20046;-63
2023/02/18 10:53:20;;;;;;;3.25;0.73;;;13.30;99.90;;;;;;4995523;28;20057;-61
2023/02/18 10:55:48;;;;;;;2.70;0.60;;;13.30;99.90;;;;;;4995403;28;20081;-61
2023/02/18 10:58:15;;;;;;;4.40;1.00;;;13.30;99.90;;;;;;4995433;28;20039;-62
2023/02/18 11:00:42;;;;;;;3.40;0.75;;;13.40;99.90;;;;;;4994961;28;20054;-60
2023/02/18 11:03:08;;;;;;;2.58;0.80;;;13.40;99.90;;;;;;4995369;28;20108;-61
2023/02/18 11:05:35;;;;;;;3.60;0.80;;;13.40;99.90;;;;;;4995089;28;20046;-62
2023/02/18 11:08:02;;;;;;;3.05;0.80;;;13.40;99.90;;;;;;4994987;28;20046;-62
2023/02/18 11:10:28;;;;;;;2.40;0.60;;;13.40;99.90;;;;;;4995230;28;20389;-61
2023/02/18 11:12:56;;;;;;;6.05;0.93;;;13.50;99.90;;;;;;4993946;28;20046;-60
2023/02/18 11:15:23;;;;;;;3.75;0.75;;;13.40;99.90;;;;;;4995070;28;20429;-62
2023/02/18 11:17:50;;;;;;;3.55;0.68;;;13.50;99.90;;;;;;4994573;28;20046;-61
2023/02/18 11:20:16;;;;;;;5.22;0.93;;;13.50;99.90;;;;;;4994515;28;20042;-61
2023/02/18 11:22:43;;;;;;;3.08;0.82;;;13.50;99.90;;;;;;4994846;28;20038;-62
2023/02/18 11:25:10;;;;;;;6.43;1.00;;;13.50;99.90;;;;;;4994366;28;20439;-63
2023/02/18 11:27:36;;;;;;;5.65;0.70;;;13.50;99.90;;;;;;4995112;28;20105;-62
2023/02/18 11:30:03;;;;;;;3.67;0.88;;;13.50;99.90;;;;;;4994585;28;20054;-59
2023/02/18 11:32:30;;;;;;;4.55;0.70;;;13.50;99.90;;;;;;4994727;28;20056;-57
2023/02/18 11:34:57;;;;;;;1.95;0.50;;;13.50;99.90;;;;;;4994678;28;20055;-63
2023/02/18 11:37:23;;;;;;;4.78;0.93;;;13.40;99.90;;;;;;4994475;28;20038;-61
2023/02/18 11:39:50;;;;;;;3.33;0.77;;;13.40;99.90;;;;;;4994548;28;20042;-57
2023/02/18 11:42:17;;;;;;;4.13;0.73;;;13.40;99.90;;;;;;4994655;28;20069;-59
2023/02/18 11:44:44;;;;;;;4.82;0.60;;;13.50;99.90;;;;;;4994517;28;20042;-60
2023/02/18 11:47:10;;;;;;;2.35;0.70;;;13.50;99.90;;;;;;4994625;28;20432;-61
2023/02/18 11:49:37;;;;;;;2.58;0.60;;;13.50;99.90;;;;;;4995056;28;20477;-63
2023/02/18 11:52:04;;;;;;;3.30;0.70;;;13.50;99.90;;;;;;4994401;28;20459;-62
2023/02/18 11:54:30;;;;;;;3.17;0.60;;;13.50;99.90;;;;;;4994243;28;20073;-62
2023/02/18 11:56:57;;;;;;;3.75;0.85;;;13.50;99.90;;;;;;4994388;28;20046;-60
2023/02/18 11:59:24;;;;;;;3.05;0.90;;;13.50;99.90;;;;;;4994700;28;20042;-61
2023/02/18 12:01:51;;;;;;;5.28;0.93;;;13.50;99.90;;;;;;4994181;28;20050;-62
2023/02/18 12:04:17;;;;;;;2.20;0.80;;;13.40;99.90;;;;;;4994280;28;20046;-64
2023/02/18 12:06:44;;;;;;;2.75;0.70;;;13.40;99.90;;;;;;4994338;28;20042;-61
2023/02/18 12:09:11;;;;;;;2.65;0.77;;;13.40;99.90;;;;;;4994391;28;20042;-63
2023/02/18 12:11:37;;;;;;;3.03;0.80;;;13.40;99.90;;;;;;4992954;28;20046;-60
2023/02/18 12:14:04;;;;;;;2.78;0.82;;;13.50;99.90;;;;;;4993939;28;20046;-60
2023/02/18 12:16:31;;;;;;;3.28;0.60;;;13.40;99.90;;;;;;4993770;28;20130;-59
2023/02/18 12:18:58;;;;;;;1.77;0.70;;;13.50;99.90;;;;;;4994055;28;20062;-63
2023/02/18 12:21:26;;;;;;;3.80;0.68;;;13.40;99.90;;;;;;4994228;28;20046;-61
2023/02/18 12:23:52;;;;;;;2.65;0.70;;;13.50;99.90;;;;;;4992382;28;20441;-60
2023/02/18 12:26:19;;;;;;;2.45;0.80;;;13.40;99.90;;;;;;4994277;28;20050;-61
2023/02/18 12:28:46;;;;;;;2.65;0.63;;;13.40;99.90;;;;;;4994226;28;20046;-58
2023/02/18 12:31:12;;;;;;;3.47;0.70;;;13.50;99.90;;;;;;4993826;28;20097;-60
2023/02/18 12:33:39;;;;;;;2.15;0.60;;;13.40;99.90;;;;;;4992388;28;20050;-59
2023/02/18 12:36:06;;;;;;;2.15;0.50;;;13.40;99.90;;;;;;4993996;28;20048;-62
2023/02/18 12:38:33;;;;;;;2.78;0.70;;;13.40;99.90;;;;;;4997720;28;20042;-61
2023/02/18 12:41:00;;;;;;;1.35;0.60;;;13.40;99.90;;;;;;4997612;28;20042;-60
2023/02/18 12:43:27;;;;;;;2.13;0.57;;;13.40;99.90;;;;;;4997770;28;20093;-63
2023/02/18 12:45:54;;;;;;;2.28;0.80;;;13.40;99.90;;;;;;4996408;28;20044;-61
2023/02/18 12:48:20;;;;;;;3.10;0.60;;;13.40;99.90;;;;;;4997640;28;20047;-61